sensor_id;sensor_type;location;lat;lon;timestamp;P1;durP1;ratioP1;P2;durP2;ratioP2
74064;SDS011;62421;51.412;5.432;2023-05-10T00:00:22;34.30;;;17.97;;
74064;SDS011;62421;51.412;5.432;2023-05-10T00:02:48;46.43;;;19.00;;
74064;SDS011;62421;51.412;5.432;2023-05-10T00:05:14;37.13;;;19.17;;
74064;SDS011;62421;51.412;5.432;2023-05-10T00:07:39;42.80;;;21.30;;
74064;SDS011;62421;51.412;5.432;2023-05-10T00:10:05;46.13;;;21.10;;
74064;SDS011;62421;51.412;5.432;2023-05-10T00:12:31;45.15;;;21.38;;
74064;SDS011;62421;51.412;5.432;2023-05-10T00:14:56;49.70;;;21.53;;
74064;SDS011;62421;51.412;5.432;2023-05-10T00:17:21;47.40;;;21.93;;
74064;SDS011;62421;51.412;5.432;2023-05-10T00:19:47;49.92;;;22.67;;
74064;SDS011;62421;51.412;5.432;2023-05-10T00:22:13;45.67;;;20.05;;
74064;SDS011;62421;51.412;5.432;2023-05-10T00:24:38;47.67;;;21.37;;
74064;SDS011;62421;51.412;5.432;2023-05-10T00:27:03;45.57;;;21.83;;
74064;SDS011;62421;51.412;5.432;2023-05-10T00:29:29;55.88;;;23.83;;
74064;SDS011;62421;51.412;5.432;2023-05-10T00:31:54;54.20;;;24.45;;
74064;SDS011;62421;51.412;5.432;2023-05-10T00:34:20;49.73;;;22.47;;
74064;SDS011;62421;51.412;5.432;2023-05-10T00:36:45;52.97;;;23.27;;
74064;SDS011;62421;51.412;5.432;2023-05-10T00:39:11;49.83;;;22.87;;
74064;SDS011;62421;51.412;5.432;2023-05-10T00:41:37;52.72;;;23.63;;
74064;SDS011;62421;51.412;5.432;2023-05-10T00:44:02;53.73;;;23.17;;
74064;SDS011;62421;51.412;5.432;2023-05-10T00:46:29;54.83;;;22.85;;
74064;SDS011;62421;51.412;5.432;2023-05-10T00:48:54;53.60;;;22.83;;
74064;SDS011;62421;51.412;5.432;2023-05-10T00:51:20;50.90;;;21.65;;
74064;SDS011;62421;51.412;5.432;2023-05-10T00:53:45;53.83;;;21.53;;
74064;SDS011;62421;51.412;5.432;2023-05-10T00:56:11;50.43;;;21.93;;
74064;SDS011;62421;51.412;5.432;2023-05-10T00:58:38;51.25;;;21.85;;
74064;SDS011;62421;51.412;5.432;2023-05-10T01:01:04;58.80;;;24.05;;
74064;SDS011;62421;51.412;5.432;2023-05-10T01:03:31;55.67;;;23.27;;
74064;SDS011;62421;51.412;5.432;2023-05-10T01:05:57;54.30;;;22.65;;
74064;SDS011;62421;51.412;5.432;2023-05-10T01:08:22;59.30;;;24.03;;
74064;SDS011;62421;51.412;5.432;2023-05-10T01:10:48;62.03;;;25.00;;
74064;SDS011;62421;51.412;5.432;2023-05-10T01:13:25;58.92;;;24.27;;
74064;SDS011;62421;51.412;5.432;2023-05-10T01:15:59;60.58;;;23.33;;
74064;SDS011;62421;51.412;5.432;2023-05-10T01:18:28;62.63;;;25.33;;
74064;SDS011;62421;51.412;5.432;2023-05-10T01:30:05;65.88;;;25.98;;
74064;SDS011;62421;51.412;5.432;2023-05-10T01:33:01;60.00;;;25.10;;
74064;SDS011;62421;51.412;5.432;2023-05-10T01:41:19;65.78;;;23.73;;
74064;SDS011;62421;51.412;5.432;2023-05-10T01:44:18;63.13;;;25.15;;
74064;SDS011;62421;51.412;5.432;2023-05-10T01:47:22;53.95;;;24.33;;
74064;SDS011;62421;51.412;5.432;2023-05-10T01:49:56;55.33;;;24.47;;
74064;SDS011;62421;51.412;5.432;2023-05-10T01:52:28;56.72;;;25.48;;
74064;SDS011;62421;51.412;5.432;2023-05-10T01:55:01;55.60;;;23.58;;
74064;SDS011;62421;51.412;5.432;2023-05-10T01:57:33;57.47;;;26.45;;
74064;SDS011;62421;51.412;5.432;2023-05-10T02:00:04;58.08;;;24.67;;
74064;SDS011;62421;51.412;5.432;2023-05-10T02:02:33;58.30;;;25.53;;
74064;SDS011;62421;51.412;5.432;2023-05-10T02:05:02;57.80;;;24.88;;
74064;SDS011;62421;51.412;5.432;2023-05-10T02:07:30;66.95;;;27.35;;
74064;SDS011;62421;51.412;5.432;2023-05-10T02:09:58;69.53;;;26.55;;
74064;SDS011;62421;51.412;5.432;2023-05-10T02:12:24;66.85;;;28.42;;
74064;SDS011;62421;51.412;5.432;2023-05-10T02:14:52;81.33;;;30.83;;
74064;SDS011;62421;51.412;5.432;2023-05-10T02:17:19;80.90;;;29.48;;
74064;SDS011;62421;51.412;5.432;2023-05-10T02:19:45;75.50;;;30.55;;
74064;SDS011;62421;51.412;5.432;2023-05-10T02:22:12;76.82;;;31.52;;
74064;SDS011;62421;51.412;5.432;2023-05-10T02:24:38;74.85;;;30.25;;
74064;SDS011;62421;51.412;5.432;2023-05-10T02:27:05;87.07;;;33.50;;
74064;SDS011;62421;51.412;5.432;2023-05-10T02:29:31;79.18;;;31.80;;
74064;SDS011;62421;51.412;5.432;2023-05-10T02:31:58;81.63;;;32.90;;
74064;SDS011;62421;51.412;5.432;2023-05-10T02:34:27;79.97;;;32.05;;
74064;SDS011;62421;51.412;5.432;2023-05-10T02:36:55;71.93;;;31.85;;
74064;SDS011;62421;51.412;5.432;2023-05-10T02:39:21;74.80;;;30.87;;
74064;SDS011;62421;51.412;5.432;2023-05-10T02:41:48;77.80;;;32.10;;
74064;SDS011;62421;51.412;5.432;2023-05-10T02:44:15;73.57;;;31.83;;
74064;SDS011;62421;51.412;5.432;2023-05-10T02:46:43;74.30;;;31.77;;
74064;SDS011;62421;51.412;5.432;2023-05-10T02:49:09;72.27;;;31.00;;
74064;SDS011;62421;51.412;5.432;2023-05-10T02:51:35;73.97;;;31.40;;
74064;SDS011;62421;51.412;5.432;2023-05-10T02:54:15;70.43;;;29.43;;
74064;SDS011;62421;51.412;5.432;2023-05-10T02:56:50;75.10;;;30.75;;
74064;SDS011;62421;51.412;5.432;2023-05-10T02:59:19;70.68;;;30.30;;
74064;SDS011;62421;51.412;5.432;2023-05-10T03:01:44;80.23;;;31.70;;
74064;SDS011;62421;51.412;5.432;2023-05-10T03:04:10;73.18;;;30.92;;
74064;SDS011;62421;51.412;5.432;2023-05-10T03:06:35;72.23;;;28.37;;
74064;SDS011;62421;51.412;5.432;2023-05-10T03:09:01;72.97;;;30.33;;
74064;SDS011;62421;51.412;5.432;2023-05-10T03:14:06;73.70;;;30.08;;
74064;SDS011;62421;51.412;5.432;2023-05-10T03:16:47;66.38;;;29.80;;
74064;SDS011;62421;51.412;5.432;2023-05-10T03:19:30;64.47;;;28.73;;
74064;SDS011;62421;51.412;5.432;2023-05-10T03:22:06;62.15;;;25.35;;
74064;SDS011;62421;51.412;5.432;2023-05-10T03:24:35;67.22;;;28.15;;
74064;SDS011;62421;51.412;5.432;2023-05-10T03:27:01;62.28;;;25.83;;
74064;SDS011;62421;51.412;5.432;2023-05-10T03:29:29;64.95;;;25.23;;
74064;SDS011;62421;51.412;5.432;2023-05-10T03:31:57;68.17;;;27.53;;
74064;SDS011;62421;51.412;5.432;2023-05-10T03:34:24;59.35;;;24.95;;
74064;SDS011;62421;51.412;5.432;2023-05-10T03:36:50;70.03;;;26.38;;
74064;SDS011;62421;51.412;5.432;2023-05-10T03:39:15;65.03;;;26.30;;
74064;SDS011;62421;51.412;5.432;2023-05-10T03:41:40;74.63;;;26.30;;
74064;SDS011;62421;51.412;5.432;2023-05-10T03:44:06;67.20;;;25.50;;
74064;SDS011;62421;51.412;5.432;2023-05-10T03:46:31;68.90;;;25.90;;
74064;SDS011;62421;51.412;5.432;2023-05-10T03:48:57;73.25;;;26.92;;
74064;SDS011;62421;51.412;5.432;2023-05-10T03:51:22;66.60;;;26.33;;
74064;SDS011;62421;51.412;5.432;2023-05-10T03:53:48;75.70;;;27.17;;
74064;SDS011;62421;51.412;5.432;2023-05-10T03:56:13;67.30;;;26.42;;
74064;SDS011;62421;51.412;5.432;2023-05-10T03:58:39;75.43;;;27.50;;
74064;SDS011;62421;51.412;5.432;2023-05-10T04:01:04;72.30;;;28.37;;
74064;SDS011;62421;51.412;5.432;2023-05-10T04:03:29;83.57;;;29.60;;
74064;SDS011;62421;51.412;5.432;2023-05-10T04:05:59;87.73;;;31.20;;
74064;SDS011;62421;51.412;5.432;2023-05-10T04:08:26;93.43;;;30.73;;
74064;SDS011;62421;51.412;5.432;2023-05-10T04:10:51;92.13;;;31.93;;
74064;SDS011;62421;51.412;5.432;2023-05-10T04:13:16;95.00;;;33.10;;
74064;SDS011;62421;51.412;5.432;2023-05-10T04:15:42;98.03;;;32.33;;
74064;SDS011;62421;51.412;5.432;2023-05-10T04:18:08;107.18;;;35.90;;
74064;SDS011;62421;51.412;5.432;2023-05-10T04:20:33;106.87;;;35.07;;
74064;SDS011;62421;51.412;5.432;2023-05-10T04:22:59;102.45;;;34.28;;
74064;SDS011;62421;51.412;5.432;2023-05-10T04:25:24;103.17;;;33.13;;
74064;SDS011;62421;51.412;5.432;2023-05-10T04:27:50;98.87;;;34.30;;
74064;SDS011;62421;51.412;5.432;2023-05-10T04:30:16;104.25;;;33.08;;
74064;SDS011;62421;51.412;5.432;2023-05-10T04:32:42;94.57;;;33.57;;
74064;SDS011;62421;51.412;5.432;2023-05-10T04:35:07;97.23;;;34.87;;
74064;SDS011;62421;51.412;5.432;2023-05-10T04:37:34;112.88;;;36.20;;
74064;SDS011;62421;51.412;5.432;2023-05-10T04:39:59;100.73;;;35.47;;
74064;SDS011;62421;51.412;5.432;2023-05-10T04:42:25;97.30;;;34.20;;
74064;SDS011;62421;51.412;5.432;2023-05-10T04:44:50;96.78;;;32.55;;
74064;SDS011;62421;51.412;5.432;2023-05-10T04:47:16;98.90;;;34.97;;
74064;SDS011;62421;51.412;5.432;2023-05-10T04:49:42;86.85;;;32.47;;
74064;SDS011;62421;51.412;5.432;2023-05-10T04:52:07;91.07;;;34.03;;
74064;SDS011;62421;51.412;5.432;2023-05-10T04:54:32;82.40;;;31.40;;
74064;SDS011;62421;51.412;5.432;2023-05-10T04:56:58;85.47;;;32.57;;
74064;SDS011;62421;51.412;5.432;2023-05-10T04:59:23;89.03;;;33.90;;
74064;SDS011;62421;51.412;5.432;2023-05-10T05:01:48;81.93;;;30.67;;
74064;SDS011;62421;51.412;5.432;2023-05-10T05:04:14;82.70;;;30.23;;
74064;SDS011;62421;51.412;5.432;2023-05-10T05:06:39;81.53;;;31.37;;
74064;SDS011;62421;51.412;5.432;2023-05-10T05:09:05;74.95;;;28.92;;
74064;SDS011;62421;51.412;5.432;2023-05-10T05:11:30;76.30;;;30.80;;
74064;SDS011;62421;51.412;5.432;2023-05-10T05:13:55;74.93;;;29.20;;
74064;SDS011;62421;51.412;5.432;2023-05-10T05:16:21;71.03;;;27.60;;
74064;SDS011;62421;51.412;5.432;2023-05-10T05:18:46;64.60;;;26.10;;
74064;SDS011;62421;51.412;5.432;2023-05-10T05:21:18;67.30;;;27.63;;
74064;SDS011;62421;51.412;5.432;2023-05-10T05:23:45;67.47;;;26.08;;
74064;SDS011;62421;51.412;5.432;2023-05-10T05:26:11;54.65;;;25.42;;
74064;SDS011;62421;51.412;5.432;2023-05-10T05:28:36;59.13;;;24.97;;
74064;SDS011;62421;51.412;5.432;2023-05-10T05:31:05;55.17;;;24.70;;
74064;SDS011;62421;51.412;5.432;2023-05-10T05:33:32;58.90;;;24.55;;
74064;SDS011;62421;51.412;5.432;2023-05-10T05:36:00;54.27;;;23.13;;
74064;SDS011;62421;51.412;5.432;2023-05-10T05:38:26;51.72;;;24.48;;
74064;SDS011;62421;51.412;5.432;2023-05-10T05:40:51;54.70;;;24.87;;
74064;SDS011;62421;51.412;5.432;2023-05-10T05:43:17;51.47;;;22.90;;
74064;SDS011;62421;51.412;5.432;2023-05-10T05:45:42;50.97;;;22.87;;
74064;SDS011;62421;51.412;5.432;2023-05-10T05:48:08;52.78;;;21.95;;
74064;SDS011;62421;51.412;5.432;2023-05-10T05:50:33;43.65;;;20.50;;
74064;SDS011;62421;51.412;5.432;2023-05-10T05:52:58;48.43;;;21.27;;
74064;SDS011;62421;51.412;5.432;2023-05-10T05:55:24;44.63;;;22.20;;
74064;SDS011;62421;51.412;5.432;2023-05-10T05:57:50;47.17;;;22.02;;
74064;SDS011;62421;51.412;5.432;2023-05-10T06:00:16;42.13;;;21.47;;
74064;SDS011;62421;51.412;5.432;2023-05-10T06:02:42;43.37;;;21.73;;
74064;SDS011;62421;51.412;5.432;2023-05-10T06:05:07;43.53;;;20.38;;
74064;SDS011;62421;51.412;5.432;2023-05-10T06:07:33;41.83;;;19.92;;
74064;SDS011;62421;51.412;5.432;2023-05-10T06:09:58;44.63;;;20.93;;
74064;SDS011;62421;51.412;5.432;2023-05-10T06:12:24;42.65;;;20.98;;
74064;SDS011;62421;51.412;5.432;2023-05-10T06:14:49;43.53;;;20.98;;
74064;SDS011;62421;51.412;5.432;2023-05-10T06:17:14;42.67;;;20.13;;
74064;SDS011;62421;51.412;5.432;2023-05-10T06:19:40;49.10;;;21.17;;
74064;SDS011;62421;51.412;5.432;2023-05-10T06:22:05;40.87;;;19.97;;
74064;SDS011;62421;51.412;5.432;2023-05-10T06:24:30;44.77;;;20.80;;
74064;SDS011;62421;51.412;5.432;2023-05-10T06:26:56;44.63;;;20.00;;
74064;SDS011;62421;51.412;5.432;2023-05-10T06:29:21;51.07;;;22.03;;
74064;SDS011;62421;51.412;5.432;2023-05-10T06:31:47;40.73;;;20.80;;
74064;SDS011;62421;51.412;5.432;2023-05-10T06:34:13;43.10;;;22.30;;
74064;SDS011;62421;51.412;5.432;2023-05-10T06:36:38;42.87;;;22.47;;
74064;SDS011;62421;51.412;5.432;2023-05-10T06:39:04;41.78;;;21.80;;
74064;SDS011;62421;51.412;5.432;2023-05-10T06:41:30;40.60;;;19.63;;
74064;SDS011;62421;51.412;5.432;2023-05-10T06:43:55;41.13;;;21.23;;
74064;SDS011;62421;51.412;5.432;2023-05-10T06:46:21;39.43;;;21.53;;
74064;SDS011;62421;51.412;5.432;2023-05-10T06:48:46;42.17;;;21.47;;
74064;SDS011;62421;51.412;5.432;2023-05-10T06:51:12;43.63;;;20.30;;
74064;SDS011;62421;51.412;5.432;2023-05-10T06:53:37;38.77;;;19.83;;
74064;SDS011;62421;51.412;5.432;2023-05-10T06:56:02;37.87;;;20.83;;
74064;SDS011;62421;51.412;5.432;2023-05-10T06:58:28;37.30;;;19.67;;
74064;SDS011;62421;51.412;5.432;2023-05-10T07:00:53;34.60;;;19.40;;
74064;SDS011;62421;51.412;5.432;2023-05-10T07:03:18;34.17;;;18.33;;
74064;SDS011;62421;51.412;5.432;2023-05-10T07:05:44;35.13;;;20.73;;
74064;SDS011;62421;51.412;5.432;2023-05-10T07:08:09;36.47;;;19.40;;
74064;SDS011;62421;51.412;5.432;2023-05-10T07:10:35;46.92;;;19.65;;
74064;SDS011;62421;51.412;5.432;2023-05-10T07:13:00;28.67;;;17.33;;
74064;SDS011;62421;51.412;5.432;2023-05-10T07:15:26;29.60;;;17.97;;
74064;SDS011;62421;51.412;5.432;2023-05-10T07:17:51;34.22;;;17.50;;
74064;SDS011;62421;51.412;5.432;2023-05-10T07:20:17;29.23;;;16.92;;
74064;SDS011;62421;51.412;5.432;2023-05-10T07:22:42;31.20;;;17.87;;
74064;SDS011;62421;51.412;5.432;2023-05-10T07:25:08;35.00;;;19.30;;
74064;SDS011;62421;51.412;5.432;2023-05-10T07:27:33;30.50;;;16.40;;
74064;SDS011;62421;51.412;5.432;2023-05-10T07:29:59;32.53;;;16.23;;
74064;SDS011;62421;51.412;5.432;2023-05-10T07:32:25;33.25;;;13.55;;
74064;SDS011;62421;51.412;5.432;2023-05-10T07:34:50;29.17;;;14.53;;
74064;SDS011;62421;51.412;5.432;2023-05-10T07:37:16;23.40;;;14.57;;
74064;SDS011;62421;51.412;5.432;2023-05-10T07:39:41;26.43;;;13.67;;
74064;SDS011;62421;51.412;5.432;2023-05-10T07:42:06;25.47;;;13.17;;
74064;SDS011;62421;51.412;5.432;2023-05-10T07:44:32;21.83;;;12.07;;
74064;SDS011;62421;51.412;5.432;2023-05-10T07:46:57;24.53;;;12.23;;
74064;SDS011;62421;51.412;5.432;2023-05-10T07:49:22;19.37;;;10.77;;
74064;SDS011;62421;51.412;5.432;2023-05-10T07:51:51;19.00;;;10.95;;
74064;SDS011;62421;51.412;5.432;2023-05-10T07:54:16;19.15;;;11.13;;
74064;SDS011;62421;51.412;5.432;2023-05-10T07:56:42;20.03;;;9.77;;
74064;SDS011;62421;51.412;5.432;2023-05-10T07:59:14;18.73;;;10.18;;
74064;SDS011;62421;51.412;5.432;2023-05-10T08:01:41;16.13;;;9.87;;
74064;SDS011;62421;51.412;5.432;2023-05-10T08:04:07;16.92;;;9.32;;
74064;SDS011;62421;51.412;5.432;2023-05-10T08:06:32;19.97;;;8.90;;
74064;SDS011;62421;51.412;5.432;2023-05-10T08:08:57;17.47;;;8.27;;
74064;SDS011;62421;51.412;5.432;2023-05-10T08:11:23;19.48;;;8.60;;
74064;SDS011;62421;51.412;5.432;2023-05-10T08:13:48;15.40;;;8.67;;
74064;SDS011;62421;51.412;5.432;2023-05-10T08:16:15;16.57;;;9.70;;
74064;SDS011;62421;51.412;5.432;2023-05-10T08:18:42;17.42;;;9.27;;
74064;SDS011;62421;51.412;5.432;2023-05-10T08:21:09;19.63;;;9.38;;
74064;SDS011;62421;51.412;5.432;2023-05-10T08:23:36;17.75;;;9.07;;
74064;SDS011;62421;51.412;5.432;2023-05-10T08:26:02;15.00;;;8.60;;
74064;SDS011;62421;51.412;5.432;2023-05-10T08:28:27;15.60;;;8.48;;
74064;SDS011;62421;51.412;5.432;2023-05-10T08:30:52;15.97;;;8.93;;
74064;SDS011;62421;51.412;5.432;2023-05-10T08:33:18;17.97;;;8.87;;
74064;SDS011;62421;51.412;5.432;2023-05-10T08:35:44;14.35;;;7.97;;
74064;SDS011;62421;51.412;5.432;2023-05-10T08:38:09;12.23;;;7.70;;
74064;SDS011;62421;51.412;5.432;2023-05-10T08:40:36;12.53;;;7.60;;
74064;SDS011;62421;51.412;5.432;2023-05-10T08:43:06;13.45;;;7.70;;
74064;SDS011;62421;51.412;5.432;2023-05-10T08:45:36;16.00;;;8.60;;
74064;SDS011;62421;51.412;5.432;2023-05-10T08:48:05;14.50;;;7.95;;
74064;SDS011;62421;51.412;5.432;2023-05-10T08:50:31;11.65;;;6.70;;
74064;SDS011;62421;51.412;5.432;2023-05-10T08:52:59;13.13;;;7.33;;
74064;SDS011;62421;51.412;5.432;2023-05-10T08:55:28;15.43;;;7.75;;
74064;SDS011;62421;51.412;5.432;2023-05-10T08:57:55;15.50;;;8.20;;
74064;SDS011;62421;51.412;5.432;2023-05-10T09:00:20;15.13;;;8.07;;
74064;SDS011;62421;51.412;5.432;2023-05-10T09:02:48;16.55;;;8.30;;
74064;SDS011;62421;51.412;5.432;2023-05-10T09:05:14;14.48;;;7.45;;
74064;SDS011;62421;51.412;5.432;2023-05-10T09:07:41;15.68;;;8.57;;
74064;SDS011;62421;51.412;5.432;2023-05-10T09:10:07;15.43;;;8.10;;
74064;SDS011;62421;51.412;5.432;2023-05-10T09:12:33;13.40;;;8.23;;
74064;SDS011;62421;51.412;5.432;2023-05-10T09:14:59;13.25;;;7.18;;
74064;SDS011;62421;51.412;5.432;2023-05-10T09:17:25;12.37;;;7.47;;
74064;SDS011;62421;51.412;5.432;2023-05-10T09:19:59;15.50;;;7.63;;
74064;SDS011;62421;51.412;5.432;2023-05-10T09:22:25;13.82;;;7.53;;
74064;SDS011;62421;51.412;5.432;2023-05-10T09:25:09;13.73;;;7.73;;
74064;SDS011;62421;51.412;5.432;2023-05-10T09:27:37;12.57;;;8.10;;
74064;SDS011;62421;51.412;5.432;2023-05-10T09:30:04;13.02;;;8.32;;
74064;SDS011;62421;51.412;5.432;2023-05-10T09:35:10;16.65;;;8.48;;
74064;SDS011;62421;51.412;5.432;2023-05-10T09:37:44;12.35;;;8.35;;
74064;SDS011;62421;51.412;5.432;2023-05-10T09:40:22;15.38;;;9.43;;
74064;SDS011;62421;51.412;5.432;2023-05-10T09:45:22;12.07;;;8.83;;
74064;SDS011;62421;51.412;5.432;2023-05-10T09:47:48;15.35;;;8.75;;
74064;SDS011;62421;51.412;5.432;2023-05-10T09:50:14;14.80;;;8.10;;
74064;SDS011;62421;51.412;5.432;2023-05-10T09:52:46;12.55;;;7.78;;
74064;SDS011;62421;51.412;5.432;2023-05-10T09:55:17;13.80;;;7.65;;
74064;SDS011;62421;51.412;5.432;2023-05-10T09:57:44;14.70;;;8.40;;
74064;SDS011;62421;51.412;5.432;2023-05-10T10:00:11;13.40;;;8.23;;
74064;SDS011;62421;51.412;5.432;2023-05-10T10:02:54;15.98;;;9.15;;
74064;SDS011;62421;51.412;5.432;2023-05-10T10:05:27;11.82;;;7.05;;
74064;SDS011;62421;51.412;5.432;2023-05-10T10:07:53;11.45;;;6.70;;
74064;SDS011;62421;51.412;5.432;2023-05-10T10:10:20;10.57;;;6.23;;
74064;SDS011;62421;51.412;5.432;2023-05-10T10:12:46;9.70;;;6.03;;
74064;SDS011;62421;51.412;5.432;2023-05-10T10:15:11;10.43;;;5.57;;
74064;SDS011;62421;51.412;5.432;2023-05-10T10:17:37;10.20;;;4.93;;
74064;SDS011;62421;51.412;5.432;2023-05-10T10:20:04;8.50;;;4.85;;
74064;SDS011;62421;51.412;5.432;2023-05-10T10:22:29;7.63;;;4.03;;
74064;SDS011;62421;51.412;5.432;2023-05-10T10:24:55;12.32;;;4.97;;
74064;SDS011;62421;51.412;5.432;2023-05-10T10:27:24;8.33;;;5.00;;
74064;SDS011;62421;51.412;5.432;2023-05-10T10:35:22;11.18;;;6.57;;
74064;SDS011;62421;51.412;5.432;2023-05-10T10:37:47;14.03;;;7.73;;
74064;SDS011;62421;51.412;5.432;2023-05-10T10:42:53;12.63;;;8.23;;
74064;SDS011;62421;51.412;5.432;2023-05-10T10:45:19;13.88;;;7.40;;
74064;SDS011;62421;51.412;5.432;2023-05-10T10:47:46;14.57;;;8.52;;
74064;SDS011;62421;51.412;5.432;2023-05-10T10:50:11;13.27;;;8.80;;
74064;SDS011;62421;51.412;5.432;2023-05-10T10:52:44;16.92;;;10.43;;
74064;SDS011;62421;51.412;5.432;2023-05-10T10:55:18;18.03;;;10.03;;
74064;SDS011;62421;51.412;5.432;2023-05-10T10:57:50;20.65;;;11.27;;
74064;SDS011;62421;51.412;5.432;2023-05-10T11:03:28;19.35;;;12.05;;
74064;SDS011;62421;51.412;5.432;2023-05-10T11:05:50;17.42;;;11.35;;
74064;SDS011;62421;51.412;5.432;2023-05-10T11:08:27;17.07;;;11.13;;
74064;SDS011;62421;51.412;5.432;2023-05-10T11:13:28;18.33;;;11.00;;
74064;SDS011;62421;51.412;5.432;2023-05-10T11:15:54;18.05;;;10.00;;
74064;SDS011;62421;51.412;5.432;2023-05-10T11:18:29;17.13;;;11.10;;
74064;SDS011;62421;51.412;5.432;2023-05-10T11:20:58;17.97;;;11.80;;
74064;SDS011;62421;51.412;5.432;2023-05-10T11:23:31;22.73;;;11.50;;
74064;SDS011;62421;51.412;5.432;2023-05-10T11:25:59;20.20;;;11.07;;
74064;SDS011;62421;51.412;5.432;2023-05-10T11:28:26;16.55;;;11.18;;
74064;SDS011;62421;51.412;5.432;2023-05-10T11:30:53;22.15;;;12.07;;
74064;SDS011;62421;51.412;5.432;2023-05-10T11:33:19;21.83;;;13.70;;
74064;SDS011;62421;51.412;5.432;2023-05-10T11:35:45;23.17;;;13.60;;
74064;SDS011;62421;51.412;5.432;2023-05-10T11:38:11;23.67;;;15.75;;
74064;SDS011;62421;51.412;5.432;2023-05-10T11:40:38;20.27;;;14.03;;
74064;SDS011;62421;51.412;5.432;2023-05-10T11:43:04;21.48;;;13.15;;
74064;SDS011;62421;51.412;5.432;2023-05-10T11:45:33;20.98;;;13.55;;
74064;SDS011;62421;51.412;5.432;2023-05-10T11:47:59;26.48;;;13.15;;
74064;SDS011;62421;51.412;5.432;2023-05-10T11:50:25;22.52;;;12.93;;
74064;SDS011;62421;51.412;5.432;2023-05-10T11:52:51;19.90;;;13.13;;
74064;SDS011;62421;51.412;5.432;2023-05-10T11:55:17;19.00;;;12.05;;
74064;SDS011;62421;51.412;5.432;2023-05-10T11:57:43;21.03;;;14.03;;
74064;SDS011;62421;51.412;5.432;2023-05-10T12:00:11;27.67;;;14.23;;
74064;SDS011;62421;51.412;5.432;2023-05-10T12:02:39;21.30;;;13.35;;
74064;SDS011;62421;51.412;5.432;2023-05-10T12:05:05;27.00;;;14.03;;
74064;SDS011;62421;51.412;5.432;2023-05-10T12:07:31;25.05;;;12.65;;
74064;SDS011;62421;51.412;5.432;2023-05-10T12:10:10;21.53;;;13.20;;
74064;SDS011;62421;51.412;5.432;2023-05-10T12:12:43;25.55;;;11.95;;
74064;SDS011;62421;51.412;5.432;2023-05-10T12:15:23;20.98;;;12.65;;
74064;SDS011;62421;51.412;5.432;2023-05-10T12:17:49;20.38;;;12.90;;
74064;SDS011;62421;51.412;5.432;2023-05-10T12:20:22;21.03;;;11.63;;
74064;SDS011;62421;51.412;5.432;2023-05-10T12:22:53;21.50;;;11.73;;
74064;SDS011;62421;51.412;5.432;2023-05-10T12:25:20;18.15;;;11.90;;
74064;SDS011;62421;51.412;5.432;2023-05-10T12:27:53;18.67;;;11.00;;
74064;SDS011;62421;51.412;5.432;2023-05-10T12:30:21;20.88;;;10.88;;
74064;SDS011;62421;51.412;5.432;2023-05-10T12:32:47;17.37;;;10.43;;
74064;SDS011;62421;51.412;5.432;2023-05-10T12:35:13;19.63;;;11.10;;
74064;SDS011;62421;51.412;5.432;2023-05-10T12:37:38;20.47;;;11.20;;
74064;SDS011;62421;51.412;5.432;2023-05-10T12:40:08;19.40;;;10.83;;
74064;SDS011;62421;51.412;5.432;2023-05-10T12:42:35;22.98;;;11.52;;
74064;SDS011;62421;51.412;5.432;2023-05-10T12:45:03;19.83;;;11.20;;
74064;SDS011;62421;51.412;5.432;2023-05-10T12:47:29;10.88;;;7.13;;
74064;SDS011;62421;51.412;5.432;2023-05-10T12:49:55;11.53;;;6.10;;
74064;SDS011;62421;51.412;5.432;2023-05-10T12:52:20;9.18;;;4.82;;
74064;SDS011;62421;51.412;5.432;2023-05-10T12:54:46;6.17;;;4.00;;
74064;SDS011;62421;51.412;5.432;2023-05-10T12:57:12;7.57;;;3.85;;
74064;SDS011;62421;51.412;5.432;2023-05-10T12:59:38;9.47;;;4.07;;
74064;SDS011;62421;51.412;5.432;2023-05-10T13:02:03;9.05;;;5.45;;
74064;SDS011;62421;51.412;5.432;2023-05-10T13:04:29;10.63;;;5.73;;
74064;SDS011;62421;51.412;5.432;2023-05-10T13:06:54;10.87;;;5.47;;
74064;SDS011;62421;51.412;5.432;2023-05-10T13:09:23;10.25;;;6.07;;
74064;SDS011;62421;51.412;5.432;2023-05-10T13:11:49;14.55;;;7.75;;
74064;SDS011;62421;51.412;5.432;2023-05-10T13:14:15;12.93;;;8.40;;
74064;SDS011;62421;51.412;5.432;2023-05-10T13:16:40;12.93;;;8.27;;
74064;SDS011;62421;51.412;5.432;2023-05-10T13:19:06;13.80;;;7.67;;
74064;SDS011;62421;51.412;5.432;2023-05-10T13:21:31;8.00;;;5.63;;
74064;SDS011;62421;51.412;5.432;2023-05-10T13:23:57;11.33;;;7.17;;
74064;SDS011;62421;51.412;5.432;2023-05-10T13:26:23;13.80;;;7.87;;
74064;SDS011;62421;51.412;5.432;2023-05-10T13:28:48;14.93;;;8.90;;
74064;SDS011;62421;51.412;5.432;2023-05-10T13:31:16;18.48;;;9.20;;
74064;SDS011;62421;51.412;5.432;2023-05-10T13:33:41;16.00;;;9.47;;
74064;SDS011;62421;51.412;5.432;2023-05-10T13:36:07;17.23;;;11.03;;
74064;SDS011;62421;51.412;5.432;2023-05-10T13:38:32;17.93;;;11.60;;
74064;SDS011;62421;51.412;5.432;2023-05-10T13:40:57;19.43;;;12.73;;
74064;SDS011;62421;51.412;5.432;2023-05-10T13:43:23;21.73;;;13.63;;
74064;SDS011;62421;51.412;5.432;2023-05-10T13:45:48;22.05;;;13.43;;
74064;SDS011;62421;51.412;5.432;2023-05-10T13:48:14;18.87;;;12.23;;
74064;SDS011;62421;51.412;5.432;2023-05-10T13:50:40;14.50;;;8.43;;
74064;SDS011;62421;51.412;5.432;2023-05-10T13:53:05;16.30;;;9.67;;
74064;SDS011;62421;51.412;5.432;2023-05-10T13:55:30;18.20;;;10.13;;
74064;SDS011;62421;51.412;5.432;2023-05-10T13:57:55;15.93;;;8.57;;
74064;SDS011;62421;51.412;5.432;2023-05-10T14:00:21;23.47;;;9.23;;
74064;SDS011;62421;51.412;5.432;2023-05-10T14:02:46;16.40;;;10.17;;
74064;SDS011;62421;51.412;5.432;2023-05-10T14:05:12;21.98;;;10.82;;
74064;SDS011;62421;51.412;5.432;2023-05-10T14:07:37;16.53;;;8.57;;
74064;SDS011;62421;51.412;5.432;2023-05-10T14:10:03;16.63;;;8.50;;
74064;SDS011;62421;51.412;5.432;2023-05-10T14:12:28;14.17;;;8.90;;
74064;SDS011;62421;51.412;5.432;2023-05-10T14:14:54;18.90;;;9.40;;
74064;SDS011;62421;51.412;5.432;2023-05-10T14:17:19;16.33;;;8.63;;
74064;SDS011;62421;51.412;5.432;2023-05-10T14:19:44;11.63;;;7.20;;
74064;SDS011;62421;51.412;5.432;2023-05-10T14:22:10;16.07;;;7.90;;
74064;SDS011;62421;51.412;5.432;2023-05-10T14:24:35;13.83;;;7.53;;
74064;SDS011;62421;51.412;5.432;2023-05-10T14:27:01;16.40;;;7.33;;
74064;SDS011;62421;51.412;5.432;2023-05-10T14:29:26;12.10;;;6.43;;
74064;SDS011;62421;51.412;5.432;2023-05-10T14:31:51;10.57;;;5.82;;
74064;SDS011;62421;51.412;5.432;2023-05-10T14:34:17;10.43;;;6.33;;
74064;SDS011;62421;51.412;5.432;2023-05-10T14:36:42;11.43;;;5.77;;
74064;SDS011;62421;51.412;5.432;2023-05-10T14:39:08;9.60;;;5.57;;
74064;SDS011;62421;51.412;5.432;2023-05-10T14:41:35;9.13;;;4.88;;
74064;SDS011;62421;51.412;5.432;2023-05-10T14:44:00;13.40;;;6.10;;
74064;SDS011;62421;51.412;5.432;2023-05-10T14:46:26;11.45;;;5.75;;
74064;SDS011;62421;51.412;5.432;2023-05-10T14:48:52;10.73;;;5.57;;
74064;SDS011;62421;51.412;5.432;2023-05-10T14:51:17;12.07;;;6.25;;
74064;SDS011;62421;51.412;5.432;2023-05-10T14:53:46;15.20;;;6.20;;
74064;SDS011;62421;51.412;5.432;2023-05-10T14:56:12;16.70;;;7.28;;
74064;SDS011;62421;51.412;5.432;2023-05-10T14:58:37;12.53;;;6.90;;
74064;SDS011;62421;51.412;5.432;2023-05-10T15:01:02;11.23;;;7.00;;